Time;durP1;ratioP1;P1;durP2;ratioP2;P2;SDS_P1;SDS_P2;PMS_P1;PMS_P2;Temp;Humidity;BMP_temperature;BMP_pressure;BME280_temperature;BME280_humidity;BME280_pressure;Samples;Min_cycle;Max_cycle;Signal;HPM_P1;HPM_P2
2024/01/14 00:01:47;;;;;;;;;;;5.40;99.90;;;;;;5087648;28;20336;-78
2024/01/14 00:04:13;;;;;;;;;;;5.30;99.90;;;;;;5086458;28;19974;-77
2024/01/14 00:06:38;;;;;;;;;;;5.00;99.90;;;;;;5088783;28;20015;-78
2024/01/14 00:09:04;;;;;;;;;;;5.30;99.90;;;;;;5072757;28;19927;-77
2024/01/14 00:11:29;;;;;;;;;;;5.10;99.90;;;;;;5105058;28;20735;-77
2024/01/14 00:13:55;;;;;;;;;;;5.10;99.90;;;;;;5072864;28;19927;-77
2024/01/14 00:16:21;;;;;;;;;;;5.30;99.90;;;;;;5090952;28;19977;-77
2024/01/14 00:18:47;;;;;;;;;;;5.20;99.90;;;;;;5105024;28;19934;-77
2024/01/14 00:21:13;;;;;;;;;;;5.20;99.90;;;;;;5089506;28;19952;-77
2024/01/14 00:23:39;;;;;;;;;;;5.40;99.90;;;;;;5083543;28;20010;-76
2024/01/14 00:26:04;;;;;;;;;;;5.10;99.90;;;;;;5077532;28;19932;-78
2024/01/14 00:28:30;;;;;;;;;;;5.00;99.90;;;;;;5081291;28;19932;-77
2024/01/14 00:30:55;;;;;;;;;;;6.10;99.90;;;;;;5068159;28;20585;-77
2024/01/14 00:33:27;;;;;;;;;;;5.00;99.90;;;;;;5085496;28;20008;-76
2024/01/14 00:35:52;;;;;;;;;;;5.50;99.90;;;;;;5083686;28;20034;-77
2024/01/14 00:38:18;;;;;;;;;;;5.40;99.90;;;;;;5070180;28;19943;-76
2024/01/14 00:40:44;;;;;;;;;;;5.00;99.90;;;;;;5085986;28;19927;-77
2024/01/14 00:43:09;;;;;;;;;;;5.10;99.90;;;;;;5083612;28;19932;-77
2024/01/14 00:45:35;;;;;;;;;;;5.00;99.90;;;;;;5103951;28;19928;-77
2024/01/14 00:48:00;;;;;;;;;;;5.40;99.90;;;;;;5068028;28;20029;-76
2024/01/14 00:50:26;;;;;;;;;;;5.30;99.90;;;;;;5069217;28;19934;-78
2024/01/14 00:52:52;;;;;;;;;;;5.00;99.90;;;;;;5086198;28;20012;-77
2024/01/14 00:55:18;;;;;;;;;;;5.10;99.90;;;;;;5086699;28;19923;-78
2024/01/14 00:57:43;;;;;;;;;;;5.10;99.90;;;;;;5085938;28;19923;-77
2024/01/14 01:00:10;;;;;;;;;;;4.90;99.90;;;;;;5085649;28;20865;-76
2024/01/14 01:02:36;;;;;;;;;;;4.90;99.90;;;;;;5071330;28;19924;-78
2024/01/14 01:05:02;;;;;;;;;;;4.80;99.90;;;;;;5069682;28;19996;-77
2024/01/14 01:07:28;;;;;;;;;;;5.10;99.90;;;;;;5083958;28;19927;-77
2024/01/14 01:09:53;;;;;;;;;;;4.90;99.90;;;;;;5086439;28;20092;-77
2024/01/14 01:12:19;;;;;;;;;;;5.10;99.90;;;;;;5085563;28;19928;-77
2024/01/14 01:14:47;;;;;;;;;;;5.00;99.90;;;;;;5102957;28;19935;-77
2024/01/14 01:17:13;;;;;;;;;;;4.60;99.90;;;;;;5069142;28;20285;-77
2024/01/14 01:19:38;;;;;;;;;;;5.00;99.90;;;;;;5083858;28;19927;-75
2024/01/14 01:22:04;;;;;;;;;;;4.60;99.90;;;;;;5104228;28;19928;-77
2024/01/14 01:24:29;;;;;;;;;;;4.60;99.90;;;;;;5070391;28;19932;-77
2024/01/14 01:26:55;;;;;;;;;;;4.70;99.90;;;;;;5086560;28;19930;-77
2024/01/14 01:29:21;;;;;;;;;;;4.40;99.90;;;;;;5086263;28;20413;-77
2024/01/14 01:31:46;;;;;;;;;;;5.60;99.90;;;;;;5070783;28;19963;-77
2024/01/14 01:34:12;;;;;;;;;;;4.60;99.90;;;;;;5087472;28;19928;-77
2024/01/14 01:36:38;;;;;;;;;;;4.50;99.90;;;;;;5071713;28;19928;-74
2024/01/14 01:39:04;;;;;;;;;;;4.40;99.90;;;;;;5089023;28;19941;-77
2024/01/14 01:41:29;;;;;;;;;;;4.60;99.90;;;;;;5071321;28;20315;-77
2024/01/14 01:43:55;;;;;;;;;;;4.50;99.90;;;;;;5075105;28;19992;-77
2024/01/14 01:46:20;;;;;;;;;;;4.40;99.90;;;;;;5090586;28;20354;-78
2024/01/14 01:48:47;;;;;;;;;;;4.60;99.90;;;;;;5091604;28;19927;-77
2024/01/14 01:51:13;;;;;;;;;;;4.70;99.90;;;;;;5073792;28;20388;-77
2024/01/14 01:53:40;;;;;;;;;;;4.80;99.90;;;;;;5090839;28;19995;-77
2024/01/14 01:56:05;;;;;;;;;;;4.80;99.90;;;;;;5091724;28;19924;-78
2024/01/14 01:58:31;;;;;;;;;;;4.50;99.90;;;;;;5089929;28;19927;-77
2024/01/14 02:00:57;;;;;;;;;;;4.70;99.90;;;;;;5074360;28;19924;-77
2024/01/14 02:03:28;;;;;;;;;;;4.80;99.90;;;;;;5090133;28;20472;-77
2024/01/14 02:05:57;;;;;;;;;;;4.80;99.90;;;;;;5089143;28;20514;-77
2024/01/14 02:08:23;;;;;;;;;;;4.80;99.90;;;;;;5069676;28;19936;-77
2024/01/14 02:10:49;;;;;;;;;;;4.60;99.90;;;;;;5087972;28;19935;-77
2024/01/14 02:13:15;;;;;;;;;;;5.20;99.90;;;;;;5090456;28;19946;-77
2024/01/14 02:15:41;;;;;;;;;;;4.60;99.90;;;;;;5089235;28;20440;-77
2024/01/14 02:18:06;;;;;;;;;;;4.60;99.90;;;;;;5074877;28;19924;-77
2024/01/14 02:20:32;;;;;;;;;;;4.50;99.90;;;;;;5089563;28;19932;-77
2024/01/14 02:22:59;;;;;;;;;;;4.50;99.90;;;;;;5107432;27;20408;-77
2024/01/14 02:25:25;;;;;;;;;;;4.50;99.90;;;;;;5091882;28;19928;-76
2024/01/14 02:27:51;;;;;;;;;;;4.70;99.90;;;;;;5107120;28;19928;-77
2024/01/14 02:30:17;;;;;;;;;;;4.50;99.90;;;;;;5072794;28;19939;-77
2024/01/14 02:32:42;;;;;;;;;;;4.60;99.90;;;;;;5072244;28;19923;-77
2024/01/14 02:35:08;;;;;;;;;;;4.70;99.90;;;;;;5062297;28;19954;-78
2024/01/14 02:37:35;;;;;;;;;;;4.60;99.90;;;;;;5073694;28;19927;-77
2024/01/14 02:40:00;;;;;;;;;;;5.10;99.90;;;;;;5073260;28;20354;-77
2024/01/14 02:42:26;;;;;;;;;;;4.70;99.90;;;;;;5070377;28;19975;-77
2024/01/14 02:44:52;;;;;;;;;;;4.70;99.90;;;;;;5073496;28;20366;-77
2024/01/14 02:47:17;;;;;;;;;;;4.60;99.90;;;;;;5089593;28;19931;-77
2024/01/14 02:49:43;;;;;;;;;;;4.60;99.90;;;;;;5106011;28;19931;-77
2024/01/14 02:52:08;;;;;;;;;;;5.10;99.90;;;;;;5088117;28;19928;-77
2024/01/14 02:54:34;;;;;;;;;;;4.50;99.90;;;;;;5104749;28;20425;-77
2024/01/14 02:57:01;;;;;;;;;;;4.40;99.90;;;;;;5071909;28;20461;-78
2024/01/14 02:59:26;;;;;;;;;;;4.40;99.90;;;;;;5071384;28;19928;-77
2024/01/14 03:01:58;;;;;;;;;;;4.50;99.90;;;;;;5090688;28;19930;-77
2024/01/14 03:04:24;;;;;;;;;;;4.50;99.90;;;;;;5088561;28;19984;-78
2024/01/14 03:06:49;;;;;;;;;;;4.50;99.90;;;;;;5089067;28;19927;-76
2024/01/14 03:09:15;;;;;;;;;;;4.50;99.90;;;;;;5072487;28;20295;-75
2024/01/14 03:11:41;;;;;;;;;;;4.60;99.90;;;;;;5088218;28;20272;-78
2024/01/14 03:14:06;;;;;;;;;;;4.50;99.90;;;;;;5088639;28;20458;-76
2024/01/14 03:16:33;;;;;;;;;;;4.60;99.90;;;;;;5089134;28;20075;-76
2024/01/14 03:18:59;;;;;;;;;;;4.60;99.90;;;;;;5070806;28;19928;-76
2024/01/14 03:21:24;;;;;;;;;;;4.80;99.90;;;;;;5088961;28;21185;-77
2024/01/14 03:23:50;;;;;;;;;;;4.60;99.90;;;;;;5056868;28;20276;-77
2024/01/14 03:26:16;;;;;;;;;;;4.60;99.90;;;;;;5087267;28;19927;-76
2024/01/14 03:28:41;;;;;;;;;;;4.50;99.90;;;;;;5089272;28;19931;-77
2024/01/14 03:31:10;;;;;;;;;;;4.50;99.90;;;;;;5089829;28;20292;-77
2024/01/14 03:33:36;;;;;;;;;;;4.60;99.90;;;;;;5090839;28;19934;-77
2024/01/14 03:36:08;;;;;;;;;;;4.50;99.90;;;;;;5088231;28;19938;-77
2024/01/14 03:38:34;;;;;;;;;;;4.50;99.90;;;;;;5087900;28;19931;-76
2024/01/14 03:40:59;;;;;;;;;;;4.60;99.90;;;;;;5089599;28;19932;-75
2024/01/14 03:43:25;;;;;;;;;;;4.70;99.90;;;;;;5107037;28;19923;-78
2024/01/14 03:45:51;;;;;;;;;;;4.60;99.90;;;;;;5085381;28;19945;-77
2024/01/14 03:48:16;;;;;;;;;;;4.50;99.90;;;;;;5102181;27;19989;-76
2024/01/14 03:50:45;;;;;;;;;;;4.40;99.90;;;;;;5107822;28;19980;-77
2024/01/14 03:53:11;;;;;;;;;;;4.40;99.90;;;;;;5103047;27;20384;-76
2024/01/14 03:55:36;;;;;;;;;;;4.70;99.90;;;;;;5073510;28;20010;-76
2024/01/14 03:58:02;;;;;;;;;;;4.30;99.90;;;;;;5085646;28;20014;-76
2024/01/14 04:00:28;;;;;;;;;;;4.30;99.90;;;;;;5088081;28;19924;-76
2024/01/14 04:02:55;;;;;;;;;;;4.20;99.90;;;;;;5089143;28;20031;-77
2024/01/14 04:05:21;;;;;;;;;;;4.20;99.90;;;;;;5072574;28;19935;-77
2024/01/14 04:07:49;;;;;;;;;;;4.20;99.90;;;;;;5088599;28;19927;-75
2024/01/14 04:10:23;;;;;;;;;;;4.00;99.90;;;;;;5089027;28;19928;-76
2024/01/14 04:12:49;;;;;;;;;;;4.00;99.90;;;;;;5087224;28;20156;-76
2024/01/14 04:15:15;;;;;;;;;;;4.00;99.90;;;;;;5088131;28;19928;-76
2024/01/14 04:17:40;;;;;;;;;;;4.00;99.90;;;;;;5086379;28;19923;-75
2024/01/14 04:20:07;;;;;;;;;;;4.00;99.90;;;;;;5086343;28;20011;-76
2024/01/14 04:22:33;;;;;;;;;;;4.00;99.90;;;;;;5104333;28;19928;-76
2024/01/14 04:24:58;;;;;;;;;;;4.00;99.90;;;;;;5087575;28;19943;-76
2024/01/14 04:27:24;;;;;;;;;;;4.00;99.90;;;;;;5069255;28;20398;-77
2024/01/14 04:29:49;;;;;;;;;;;4.00;99.90;;;;;;5086354;28;19983;-76
2024/01/14 04:32:15;;;;;;;;;;;4.00;99.90;;;;;;5088018;28;19993;-76
2024/01/14 04:34:40;;;;;;;;;;;4.00;99.90;;;;;;5067783;28;19939;-75
2024/01/14 04:37:06;;;;;;;;;;;4.00;99.90;;;;;;5088164;28;19935;-76
2024/01/14 04:39:32;;;;;;;;;;;4.00;99.90;;;;;;5088586;28;19931;-76
2024/01/14 04:42:00;;;;;;;;;;;4.20;99.90;;;;;;5107307;28;19977;-76
2024/01/14 04:44:26;;;;;;;;;;;4.50;99.90;;;;;;5088094;28;19924;-76
2024/01/14 04:46:53;;;;;;;;;;;4.10;99.90;;;;;;5072346;28;19932;-76
2024/01/14 04:49:19;;;;;;;;;;;4.20;99.90;;;;;;5087630;28;19977;-76
2024/01/14 04:51:45;;;;;;;;;;;4.20;99.90;;;;;;5106733;28;20350;-76
2024/01/14 04:54:11;;;;;;;;;;;4.20;99.90;;;;;;5084487;28;20055;-76
2024/01/14 04:56:37;;;;;;;;;;;4.20;99.90;;;;;;5087913;28;19931;-76
2024/01/14 04:59:04;;;;;;;;;;;4.30;99.90;;;;;;5101830;28;19924;-76
2024/01/14 05:01:30;;;;;;;;;;;4.20;99.90;;;;;;5102229;28;19982;-76
2024/01/14 05:03:56;;;;;;;;;;;4.30;99.90;;;;;;5088962;28;19990;-75
2024/01/14 05:06:21;;;;;;;;;;;4.20;99.90;;;;;;5089517;28;19999;-77
2024/01/14 05:08:47;;;;;;;;;;;4.30;99.90;;;;;;5090116;28;19935;-76
2024/01/14 05:11:13;;;;;;;;;;;4.70;99.90;;;;;;5071794;28;20563;-75
2024/01/14 05:13:38;;;;;;;;;;;4.30;99.90;;;;;;5087556;28;20030;-77
2024/01/14 05:16:04;;;;;;;;;;;4.30;99.90;;;;;;5088914;28;19924;-76
2024/01/14 05:18:30;;;;;;;;;;;4.30;99.90;;;;;;5087769;28;19977;-76
2024/01/14 05:20:56;;;;;;;;;;;4.20;99.90;;;;;;5086705;28;19974;-76
2024/01/14 05:23:21;;;;;;;;;;;4.20;99.90;;;;;;5104964;28;19928;-76
2024/01/14 05:25:47;;;;;;;;;;;4.30;99.90;;;;;;5106145;28;19924;-77
2024/01/14 05:28:12;;;;;;;;;;;4.20;99.90;;;;;;5053269;28;19924;-77
2024/01/14 05:30:38;;;;;;;;;;;4.20;99.90;;;;;;5069168;28;19928;-77
2024/01/14 05:33:07;;;;;;;;;;;4.30;99.90;;;;;;5088957;28;20276;-77
2024/01/14 05:35:32;;;;;;;;;;;4.60;99.90;;;;;;5089123;28;20485;-77
2024/01/14 05:37:58;;;;;;;;;;;4.20;99.90;;;;;;5086627;28;19931;-76
2024/01/14 05:40:24;;;;;;;;;;;4.40;99.90;;;;;;5085792;28;19935;-76
2024/01/14 05:42:49;;;;;;;;;;;4.40;99.90;;;;;;5070469;28;20468;-76
2024/01/14 05:45:15;;;;;;;;;;;4.20;99.90;;;;;;5086245;28;19932;-76
2024/01/14 05:47:41;;;;;;;;;;;4.20;99.90;;;;;;5086527;28;20405;-76
2024/01/14 05:50:07;;;;;;;;;;;4.20;99.90;;;;;;5087981;28;19927;-77
2024/01/14 05:52:33;;;;;;;;;;;4.20;99.90;;;;;;5087749;28;19931;-76
2024/01/14 05:54:59;;;;;;;;;;;4.10;99.90;;;;;;5079606;28;19931;-76
2024/01/14 05:57:24;;;;;;;;;;;4.10;99.90;;;;;;5051801;28;19927;-76
2024/01/14 05:59:50;;;;;;;;;;;5.00;99.90;;;;;;5087377;28;19942;-76
2024/01/14 06:02:16;;;;;;;;;;;4.10;99.90;;;;;;5086767;28;20296;-77
2024/01/14 06:04:41;;;;;;;;;;;4.10;99.90;;;;;;5087066;28;20318;-76
2024/01/14 06:07:07;;;;;;;;;;;4.20;99.90;;;;;;5087186;28;19935;-76
2024/01/14 06:09:32;;;;;;;;;;;4.00;99.90;;;;;;5083950;28;20320;-76
2024/01/14 06:11:58;;;;;;;;;;;4.10;99.90;;;;;;5052400;28;19932;-76
2024/01/14 06:14:24;;;;;;;;;;;4.00;99.90;;;;;;5085149;28;19931;-76
2024/01/14 06:16:49;;;;;;;;;;;4.10;99.90;;;;;;5069562;28;20098;-76
2024/01/14 06:19:15;;;;;;;;;;;4.50;99.90;;;;;;5054630;28;19939;-76
2024/01/14 06:21:41;;;;;;;;;;;3.90;99.90;;;;;;5101378;28;20039;-76
2024/01/14 06:24:07;;;;;;;;;;;3.90;99.90;;;;;;5087820;28;19920;-77
2024/01/14 06:26:33;;;;;;;;;;;4.00;99.90;;;;;;5103530;28;19931;-76
2024/01/14 06:28:58;;;;;;;;;;;4.00;99.90;;;;;;5092017;28;19931;-77
2024/01/14 06:31:24;;;;;;;;;;;4.00;99.90;;;;;;5074640;28;20403;-76
2024/01/14 06:33:50;;;;;;;;;;;4.10;99.90;;;;;;5084815;28;19928;-76
2024/01/14 06:36:18;;;;;;;;;;;4.00;99.90;;;;;;5074067;28;19928;-76
2024/01/14 06:38:43;;;;;;;;;;;4.10;99.90;;;;;;5074237;28;19943;-76
2024/01/14 06:41:11;;;;;;;;;;;4.10;99.90;;;;;;5088528;28;19992;-76
2024/01/14 06:43:36;;;;;;;;;;;4.10;99.90;;;;;;5074370;28;19936;-76
2024/01/14 06:46:02;;;;;;;;;;;5.30;99.90;;;;;;5071301;28;19923;-77
2024/01/14 06:48:28;;;;;;;;;;;4.10;99.90;;;;;;5089903;28;19928;-76
2024/01/14 06:50:53;;;;;;;;;;;4.10;99.90;;;;;;5089781;28;19973;-76
2024/01/14 06:53:19;;;;;;;;;;;4.10;99.90;;;;;;5088258;28;19931;-76
2024/01/14 06:55:45;;;;;;;;;;;4.00;99.90;;;;;;5088449;28;19929;-76
2024/01/14 06:58:10;;;;;;;;;;;4.00;99.90;;;;;;5072422;28;19932;-75
2024/01/14 07:00:36;;;;;;;;;;;4.80;99.90;;;;;;5105260;28;19960;-76
2024/01/14 07:03:02;;;;;;;;;;;4.10;99.90;;;;;;5089582;28;19927;-76
2024/01/14 07:05:27;;;;;;;;;;;4.00;99.90;;;;;;5070710;28;19979;-77
2024/01/14 07:07:53;;;;;;;;;;;4.00;99.90;;;;;;5088759;28;19981;-76
2024/01/14 07:10:18;;;;;;;;;;;4.00;99.90;;;;;;5072665;28;19935;-76
2024/01/14 07:12:44;;;;;;;;;;;4.00;99.90;;;;;;5073630;28;19998;-77
2024/01/14 07:15:09;;;;;;;;;;;3.90;99.90;;;;;;5089845;28;19938;-76
2024/01/14 07:17:35;;;;;;;;;;;4.00;99.90;;;;;;5086741;27;19960;-77
2024/01/14 07:20:02;;;;;;;;;;;4.20;99.90;;;;;;5087588;28;20593;-76
2024/01/14 07:22:27;;;;;;;;;;;4.00;99.90;;;;;;5090253;28;19977;-77
2024/01/14 07:24:53;;;;;;;;;;;3.90;99.90;;;;;;5089301;28;19931;-76
2024/01/14 07:27:19;;;;;;;;;;;3.90;99.90;;;;;;5089046;28;19924;-76
2024/01/14 07:29:44;;;;;;;;;;;3.90;99.90;;;;;;5069204;28;19923;-74
2024/01/14 07:32:12;;;;;;;;;;;4.00;99.90;;;;;;5101934;28;20076;-77
2024/01/14 07:34:38;;;;;;;;;;;4.80;99.90;;;;;;5087391;28;19959;-77
2024/01/14 07:37:04;;;;;;;;;;;4.00;99.90;;;;;;5067863;28;19935;-80
2024/01/14 07:39:29;;;;;;;;;;;4.00;99.90;;;;;;5066521;27;19932;-81
2024/01/14 07:41:55;;;;;;;;;;;4.00;99.90;;;;;;5089392;28;19931;-78
2024/01/14 07:44:21;;;;;;;;;;;4.00;99.90;;;;;;5088430;28;19931;-80
2024/01/14 07:46:47;;;;;;;;;;;4.10;99.90;;;;;;5086838;28;20200;-80
2024/01/14 07:49:12;;;;;;;;;;;4.00;99.90;;;;;;5073510;28;20281;-80
2024/01/14 07:51:38;;;;;;;;;;;4.00;99.90;;;;;;5071661;28;19927;-80
2024/01/14 07:54:04;;;;;;;;;;;4.00;99.90;;;;;;5089043;28;19963;-80
2024/01/14 07:56:29;;;;;;;;;;;4.20;99.90;;;;;;5087807;28;19962;-79
2024/01/14 07:58:55;;;;;;;;;;;4.20;99.90;;;;;;5107101;28;19977;-78
2024/01/14 08:01:20;;;;;;;;;;;4.20;99.90;;;;;;5106792;28;19927;-78
2024/01/14 08:03:46;;;;;;;;;;;4.20;99.90;;;;;;5088456;28;19930;-77
2024/01/14 08:06:12;;;;;;;;;;;4.70;99.90;;;;;;5088195;28;20382;-77
2024/01/14 08:08:38;;;;;;;;;;;4.20;99.90;;;;;;5090052;28;20004;-77
2024/01/14 08:11:05;;;;;;;;;;;4.30;99.90;;;;;;5088212;28;19934;-76
2024/01/14 08:13:30;;;;;;;;;;;4.30;99.90;;;;;;5086031;28;19982;-76
2024/01/14 08:16:02;;;;;;;;;;;4.30;99.90;;;;;;5087592;28;19931;-76
2024/01/14 08:18:28;;;;;;;;;;;4.30;99.90;;;;;;5085839;28;20026;-81
2024/01/14 08:20:53;;;;;;;;;;;4.30;99.90;;;;;;5087437;28;19957;-79
2024/01/14 08:23:19;;;;;;;;;;;4.60;99.90;;;;;;5068419;28;19919;-79
2024/01/14 08:25:45;;;;;;;;;;;4.30;99.90;;;;;;5090558;28;19924;-79
2024/01/14 08:28:11;;;;;;;;;;;4.30;99.90;;;;;;5088130;28;20490;-75
2024/01/14 08:30:37;;;;;;;;;;;4.40;99.90;;;;;;5088261;28;19928;-76
2024/01/14 08:33:02;;;;;;;;;;;4.20;99.90;;;;;;5071891;28;20019;-76
2024/01/14 08:35:31;;;;;;;;;;;4.30;99.90;;;;;;5108083;27;19980;-76
2024/01/14 08:37:57;;;;;;;;;;;4.30;99.90;;;;;;5061562;28;19928;-76
2024/01/14 08:40:23;;;;;;;;;;;4.20;99.90;;;;;;5088902;28;19974;-76
2024/01/14 08:42:49;;;;;;;;;;;4.30;99.90;;;;;;5085944;28;19963;-76
2024/01/14 08:45:16;;;;;;;;;;;4.60;99.90;;;;;;5086358;28;19924;-75
2024/01/14 08:47:41;;;;;;;;;;;4.40;99.90;;;;;;5069239;28;19924;-76
2024/01/14 08:50:09;;;;;;;;;;;4.30;99.90;;;;;;5108020;28;20151;-76
2024/01/14 08:52:41;;;;;;;;;;;4.40;99.90;;;;;;5088233;28;19928;-76
2024/01/14 08:55:08;;;;;;;;;;;5.60;99.90;;;;;;5090869;28;19924;-76
2024/01/14 08:57:34;;;;;;;;;;;4.40;99.90;;;;;;5091111;28;20390;-76
2024/01/14 09:00:01;;;;;;;;;;;4.40;99.90;;;;;;5088599;28;19975;-76
2024/01/14 09:02:27;;;;;;;;;;;4.50;99.90;;;;;;5085186;28;19971;-76
2024/01/14 09:04:53;;;;;;;;;;;4.40;99.90;;;;;;5066304;28;20421;-78
2024/01/14 09:07:19;;;;;;;;;;;4.50;99.90;;;;;;5083511;28;19938;-77
2024/01/14 09:09:50;;;;;;;;;;;4.40;99.90;;;;;;5088595;28;20523;-75
2024/01/14 09:12:16;;;;;;;;;;;4.40;99.90;;;;;;5084333;28;19924;-78
2024/01/14 09:14:41;;;;;;;;;;;4.60;99.90;;;;;;5068249;28;19927;-75
2024/01/14 09:17:07;;;;;;;;;;;4.40;99.90;;;;;;5085694;28;20234;-75
2024/01/14 09:19:33;;;;;;;;;;;4.40;99.90;;;;;;5071197;28;19935;-75
2024/01/14 09:22:05;;;;;;;;;;;4.50;99.90;;;;;;5105409;28;19927;-75
2024/01/14 09:24:30;;;;;;;;;;;4.50;99.90;;;;;;5087712;28;19930;-76
2024/01/14 09:26:56;;;;;;;;;;;4.40;99.90;;;;;;5106272;28;19975;-74
2024/01/14 09:29:22;;;;;;;;;;;4.50;99.90;;;;;;5086559;28;20016;-75
2024/01/14 09:31:47;;;;;;;;;;;4.40;99.90;;;;;;5086217;28;20286;-75
2024/01/14 09:34:13;;;;;;;;;;;4.50;99.90;;;;;;5089259;28;20049;-76
2024/01/14 09:36:41;;;;;;;;;;;4.50;99.90;;;;;;5107862;28;20470;-75
2024/01/14 09:39:10;;;;;;;;;;;4.60;99.90;;;;;;5069144;28;19934;-75
2024/01/14 09:41:44;;;;;;;;;;;4.60;99.90;;;;;;5088052;28;20302;-76
2024/01/14 09:44:17;;;;;;;;;;;4.50;99.90;;;;;;5089783;28;20016;-75
2024/01/14 09:46:44;;;;;;;;;;;4.60;99.90;;;;;;5089326;28;20370;-76
2024/01/14 09:49:11;;;;;;;;;;;4.50;99.90;;;;;;5107194;28;19931;-74
2024/01/14 09:51:37;;;;;;;;;;;4.60;99.90;;;;;;5086753;28;19931;-75
2024/01/14 09:54:04;;;;;;;;;;;4.60;99.90;;;;;;5086343;28;19931;-75
2024/01/14 09:56:31;;;;;;;;;;;4.50;99.90;;;;;;5091171;28;19931;-74
2024/01/14 09:58:57;;;;;;;;;;;4.50;99.90;;;;;;5094529;28;19924;-74
2024/01/14 10:01:23;;;;;;;;;;;4.50;99.90;;;;;;5106096;28;19935;-75
2024/01/14 10:03:49;;;;;;;;;;;4.40;99.90;;;;;;5094016;28;20451;-75
2024/01/14 10:06:14;;;;;;;;;;;4.40;99.90;;;;;;5091966;28;20010;-75
2024/01/14 10:08:40;;;;;;;;;;;4.40;99.90;;;;;;5095135;28;19935;-75
2024/01/14 10:11:07;;;;;;;;;;;4.50;99.90;;;;;;5110967;28;19928;-76
2024/01/14 10:13:34;;;;;;;;;;;4.50;99.90;;;;;;5094441;28;19923;-75
2024/01/14 10:15:59;;;;;;;;;;;4.40;99.90;;;;;;5094508;28;19928;-75
2024/01/14 10:18:25;;;;;;;;;;;4.40;99.90;;;;;;5094512;28;19973;-76
2024/01/14 10:20:51;;;;;;;;;;;4.40;99.90;;;;;;5092886;28;20234;-75
2024/01/14 10:23:17;;;;;;;;;;;4.40;99.90;;;;;;5093142;28;19928;-75
2024/01/14 10:25:42;;;;;;;;;;;4.50;99.90;;;;;;5093544;28;19920;-75
2024/01/14 10:28:09;;;;;;;;;;;4.30;99.90;;;;;;5061449;28;20242;-75
2024/01/14 10:30:35;;;;;;;;;;;4.40;99.90;;;;;;5075694;28;20019;-75
2024/01/14 10:33:02;;;;;;;;;;;5.10;99.90;;;;;;5090543;28;20057;-75
2024/01/14 10:35:28;;;;;;;;;;;4.40;99.90;;;;;;5093065;28;19967;-75
2024/01/14 10:37:53;;;;;;;;;;;4.70;99.90;;;;;;5086396;28;19986;-76
2024/01/14 10:40:19;;;;;;;;;;;4.40;99.90;;;;;;5092657;28;19931;-75
2024/01/14 10:42:45;;;;;;;;;;;4.70;99.90;;;;;;5091138;28;20026;-75
2024/01/14 10:45:10;;;;;;;;;;;5.20;99.90;;;;;;5075742;28;19977;-76
2024/01/14 10:47:36;;;;;;;;;;;5.80;99.90;;;;;;5076453;28;20195;-76
2024/01/14 10:50:03;;;;;;;;;;;6.10;99.90;;;;;;5105997;28;19928;-76
2024/01/14 10:52:31;;;;;;;;;;;6.80;99.90;;;;;;5074643;28;20010;-75
2024/01/14 10:54:58;;;;;;;;;;;7.20;99.90;;;;;;5092041;28;19988;-76
2024/01/14 10:57:34;;;;;;;;;;;7.60;99.90;;;;;;5073233;28;19988;-76
2024/01/14 11:00:08;;;;;;;;;;;7.90;99.90;;;;;;5108500;28;19938;-76
2024/01/14 11:02:34;;;;;;;;;;;8.00;99.90;;;;;;5092346;28;20006;-76
2024/01/14 11:05:00;;;;;;;;;;;7.60;99.70;;;;;;5083605;28;19928;-76
2024/01/14 11:07:26;;;;;;;;;;;7.30;99.50;;;;;;5091836;28;19924;-75
2024/01/14 11:09:53;;;;;;;;;;;7.10;99.90;;;;;;5106308;27;20344;-75
2024/01/14 11:12:24;;;;;;;;;;;7.00;99.90;;;;;;5075963;28;19924;-75
2024/01/14 11:14:57;;;;;;;;;;;6.70;99.90;;;;;;5089011;28;19931;-76
2024/01/14 11:17:26;;;;;;;;;;;6.60;99.90;;;;;;5090065;28;19999;-76
2024/01/14 11:19:53;;;;;;;;;;;6.90;99.90;;;;;;5090186;28;19932;-76
2024/01/14 11:22:19;;;;;;;;;;;6.50;99.90;;;;;;5089639;27;19996;-75
2024/01/14 11:24:45;;;;;;;;;;;6.70;99.90;;;;;;5108875;28;20294;-76
2024/01/14 11:27:11;;;;;;;;;;;6.80;99.90;;;;;;5110044;28;19938;-75
2024/01/14 11:29:40;;;;;;;;;;;6.70;99.90;;;;;;5090495;28;19923;-76
2024/01/14 11:32:07;;;;;;;;;;;6.80;99.90;;;;;;5090760;28;19928;-76
2024/01/14 11:34:44;;;;;;;;;;;7.00;99.90;;;;;;5106395;28;19950;-76
2024/01/14 11:37:11;;;;;;;;;;;6.60;99.90;;;;;;5107850;28;19982;-75
2024/01/14 11:39:37;;;;;;;;;;;6.70;99.90;;;;;;5088844;28;19934;-76
2024/01/14 11:42:03;;;;;;;;;;;7.00;99.90;;;;;;5091149;28;19928;-76
2024/01/14 11:44:32;;;;;;;;;;;6.90;99.90;;;;;;5072513;28;20382;-76
2024/01/14 11:46:58;;;;;;;;;;;6.30;99.90;;;;;;5089739;28;19928;-76
2024/01/14 11:49:28;;;;;;;;;;;6.80;99.90;;;;;;5072001;28;20018;-75
2024/01/14 11:51:54;;;;;;;;;;;6.60;99.90;;;;;;5072284;28;20046;-76
2024/01/14 11:54:21;;;;;;;;;;;6.50;99.90;;;;;;5090186;28;19982;-76
2024/01/14 11:56:47;;;;;;;;;;;6.70;99.90;;;;;;5091004;28;19931;-75
2024/01/14 11:59:13;;;;;;;;;;;6.90;99.90;;;;;;5090277;28;20399;-76
2024/01/14 12:01:39;;;;;;;;;;;6.50;99.90;;;;;;5105856;28;19927;-76
2024/01/14 12:04:10;;;;;;;;;;;7.00;99.90;;;;;;5109123;28;19981;-75
2024/01/14 12:06:37;;;;;;;;;;;6.60;99.90;;;;;;5088478;28;19976;-75
2024/01/14 12:09:02;;;;;;;;;;;6.60;99.90;;;;;;5072350;28;19923;-75
2024/01/14 12:11:28;;;;;;;;;;;6.60;99.50;;;;;;5106032;28;19981;-77
2024/01/14 12:13:54;;;;;;;;;;;6.10;99.60;;;;;;5087172;28;19984;-79
2024/01/14 12:16:19;;;;;;;;;;;6.50;99.50;;;;;;5085209;28;20445;-75
2024/01/14 12:18:45;;;;;;;;;;;6.50;99.30;;;;;;5099617;27;20435;-75
2024/01/14 12:21:11;;;;;;;;;;;6.80;99.90;;;;;;5085685;28;19923;-76
2024/01/14 12:23:37;;;;;;;;;;;6.00;99.60;;;;;;5085152;28;19928;-75
2024/01/14 12:26:06;;;;;;;;;;;6.20;99.30;;;;;;5085951;28;19924;-75
2024/01/14 12:28:32;;;;;;;;;;;6.30;99.90;;;;;;5066776;28;19930;-75
2024/01/14 12:30:58;;;;;;;;;;;5.80;99.90;;;;;;5066015;28;21548;-75
2024/01/14 12:33:25;;;;;;;;;;;5.80;99.90;;;;;;5085668;28;19984;-75
2024/01/14 12:35:50;;;;;;;;;;;5.70;99.90;;;;;;5069246;28;19928;-75
2024/01/14 12:38:16;;;;;;;;;;;5.60;99.90;;;;;;5066017;28;20429;-76
2024/01/14 12:40:42;;;;;;;;;;;5.80;99.90;;;;;;5102214;27;20201;-76
2024/01/14 12:43:14;;;;;;;;;;;5.70;99.90;;;;;;5082301;28;20885;-76
2024/01/14 12:45:47;;;;;;;;;;;6.00;99.90;;;;;;5084513;28;19980;-73
2024/01/14 12:48:18;;;;;;;;;;;5.70;99.90;;;;;;5090054;28;20532;-76
2024/01/14 12:50:45;;;;;;;;;;;5.50;99.90;;;;;;5088149;28;19928;-76
2024/01/14 12:53:12;;;;;;;;;;;5.90;99.90;;;;;;5084659;28;19937;-74
2024/01/14 12:55:38;;;;;;;;;;;5.90;99.90;;;;;;5086294;28;19944;-75
2024/01/14 12:58:04;;;;;;;;;;;5.70;99.90;;;;;;5068179;28;19932;-76
2024/01/14 13:00:34;;;;;;;;;;;5.40;99.90;;;;;;5102746;28;19934;-75
2024/01/14 13:03:00;;;;;;;;;;;5.30;99.90;;;;;;5086124;28;20552;-75
2024/01/14 13:05:26;;;;;;;;;;;5.60;99.90;;;;;;5071764;28;20291;-75
2024/01/14 13:07:51;;;;;;;;;;;5.80;99.90;;;;;;5083372;28;20412;-74
2024/01/14 13:10:19;;;;;;;;;;;5.30;99.90;;;;;;5085818;28;19927;-74
2024/01/14 13:12:46;;;;;;;;;;;5.30;99.90;;;;;;5067223;28;19932;-75
2024/01/14 13:15:12;;;;;;;;;;;5.30;99.90;;;;;;5071698;28;19927;-75
2024/01/14 13:17:37;;;;;;;;;;;5.80;99.90;;;;;;5072044;28;19927;-75
2024/01/14 13:20:03;;;;;;;;;;;5.70;99.90;;;;;;5070613;28;20022;-75
2024/01/14 13:22:29;;;;;;;;;;;5.70;99.90;;;;;;5071015;28;19975;-76
2024/01/14 13:24:55;;;;;;;;;;;5.50;99.90;;;;;;5071015;28;19971;-76
2024/01/14 13:27:20;;;;;;;;;;;5.40;99.90;;;;;;5085047;28;20338;-75
2024/01/14 13:29:47;;;;;;;;;;;5.50;99.90;;;;;;5061901;28;19965;-75
2024/01/14 13:32:13;;;;;;;;;;;5.40;99.90;;;;;;5109519;28;19927;-75
2024/01/14 13:34:38;;;;;;;;;;;5.40;99.90;;;;;;5096001;28;20275;-76
2024/01/14 13:37:04;;;;;;;;;;;5.20;99.90;;;;;;5089990;28;19924;-78
2024/01/14 13:39:30;;;;;;;;;;;6.70;99.90;;;;;;5091067;28;19938;-77
2024/01/14 13:41:56;;;;;;;;;;;5.10;99.90;;;;;;5090398;28;20286;-78
2024/01/14 13:44:22;;;;;;;;;;;5.10;99.90;;;;;;5069905;28;20576;-77
2024/01/14 13:46:48;;;;;;;;;;;5.30;99.90;;;;;;5091149;28;19924;-76
2024/01/14 13:49:14;;;;;;;;;;;5.30;99.90;;;;;;5093947;28;19928;-77
2024/01/14 13:51:40;;;;;;;;;;;5.20;99.90;;;;;;5113647;27;19932;-76
2024/01/14 13:54:06;;;;;;;;;;;5.10;99.90;;;;;;5071633;27;20413;-77
2024/01/14 13:56:31;;;;;;;;;;;4.70;99.90;;;;;;5090857;27;19966;-78
2024/01/14 13:58:57;;;;;;;;;;;4.80;99.90;;;;;;5089762;28;20003;-77
2024/01/14 14:01:24;;;;;;;;;;;5.00;99.90;;;;;;5071302;27;19938;-81
2024/01/14 14:03:50;;;;;;;;;;;4.70;99.90;;;;;;5070170;27;20897;-75
2024/01/14 14:06:16;;;;;;;;;;;4.90;99.90;;;;;;5072297;28;19928;-78
2024/01/14 14:08:52;;;;;;;;;;;4.90;99.90;;;;;;5091443;27;19928;-77
2024/01/14 14:11:18;;;;;;;;;;;4.90;99.90;;;;;;5090852;27;19943;-78
2024/01/14 14:13:44;;;;;;;;;;;5.00;99.90;;;;;;5087085;28;20302;-78
2024/01/14 14:16:10;;;;;;;;;;;4.70;99.90;;;;;;5093954;28;19923;-78
2024/01/14 14:18:36;;;;;;;;;;;5.00;99.90;;;;;;5092715;28;19930;-77
2024/01/14 14:21:02;;;;;;;;;;;5.30;99.90;;;;;;5076994;28;19931;-76
2024/01/14 14:23:29;;;;;;;;;;;5.00;99.90;;;;;;5075414;28;19931;-78
2024/01/14 14:25:55;;;;;;;;;;;5.00;99.90;;;;;;5091930;28;19973;-78